sensor_id;sensor_type;location;lat;lon;timestamp;temperature;humidity
72202;SHT30;60105;54.956;73.412;2022-10-18T00:00:48;5.71;80.09
72202;SHT30;60105;54.956;73.412;2022-10-18T00:03:14;5.69;80.07
72202;SHT30;60105;54.956;73.412;2022-10-18T00:05:46;5.74;79.88
72202;SHT30;60105;54.956;73.412;2022-10-18T00:08:22;5.77;80.60
72202;SHT30;60105;54.956;73.412;2022-10-18T00:10:49;5.84;79.61
72202;SHT30;60105;54.956;73.412;2022-10-18T00:13:16;5.81;79.80
72202;SHT30;60105;54.956;73.412;2022-10-18T00:15:53;5.82;79.60
72202;SHT30;60105;54.956;73.412;2022-10-18T00:18:20;5.79;80.00
72202;SHT30;60105;54.956;73.412;2022-10-18T00:21:01;5.79;79.98
72202;SHT30;60105;54.956;73.412;2022-10-18T00:23:28;5.84;79.65
72202;SHT30;60105;54.956;73.412;2022-10-18T00:26:06;5.82;79.84
72202;SHT30;60105;54.956;73.412;2022-10-18T00:28:34;5.85;79.57
72202;SHT30;60105;54.956;73.412;2022-10-18T00:31:16;5.84;79.88
72202;SHT30;60105;54.956;73.412;2022-10-18T00:33:56;5.79;79.95
72202;SHT30;60105;54.956;73.412;2022-10-18T00:36:30;5.71;80.17
72202;SHT30;60105;54.956;73.412;2022-10-18T00:38:57;5.69;80.22
72202;SHT30;60105;54.956;73.412;2022-10-18T00:41:26;5.64;80.52
72202;SHT30;60105;54.956;73.412;2022-10-18T00:46:27;5.48;81.37
72202;SHT30;60105;54.956;73.412;2022-10-18T00:48:55;5.51;81.30
72202;SHT30;60105;54.956;73.412;2022-10-18T00:51:22;5.60;81.15
72202;SHT30;60105;54.956;73.412;2022-10-18T00:54:00;5.60;81.02
72202;SHT30;60105;54.956;73.412;2022-10-18T00:56:33;5.52;81.38
72202;SHT30;60105;54.956;73.412;2022-10-18T00:59:05;5.48;81.53
72202;SHT30;60105;54.956;73.412;2022-10-18T01:01:41;5.52;81.76
72202;SHT30;60105;54.956;73.412;2022-10-18T01:04:09;5.48;81.88
72202;SHT30;60105;54.956;73.412;2022-10-18T01:07:09;5.55;81.54
72202;SHT30;60105;54.956;73.412;2022-10-18T01:18:41;5.75;81.14
72202;SHT30;60105;54.956;73.412;2022-10-18T01:32:39;5.84;81.12
72202;SHT30;60105;54.956;73.412;2022-10-18T01:35:13;5.87;80.88
72202;SHT30;60105;54.956;73.412;2022-10-18T01:37:43;5.95;80.90
72202;SHT30;60105;54.956;73.412;2022-10-18T01:40:13;6.06;80.49
72202;SHT30;60105;54.956;73.412;2022-10-18T01:42:45;6.10;80.19
72202;SHT30;60105;54.956;73.412;2022-10-18T01:45:24;6.09;80.10
72202;SHT30;60105;54.956;73.412;2022-10-18T01:47:51;6.01;80.24
72202;SHT30;60105;54.956;73.412;2022-10-18T01:50:30;6.02;80.26
72202;SHT30;60105;54.956;73.412;2022-10-18T01:52:57;6.09;79.87
72202;SHT30;60105;54.956;73.412;2022-10-18T01:55:44;6.02;80.03
72202;SHT30;60105;54.956;73.412;2022-10-18T02:00:41;6.03;80.50
72202;SHT30;60105;54.956;73.412;2022-10-18T02:06:12;5.95;80.68
72202;SHT30;60105;54.956;73.412;2022-10-18T02:09:03;6.08;80.21
72202;SHT30;60105;54.956;73.412;2022-10-18T02:11:28;6.12;80.39
72202;SHT30;60105;54.956;73.412;2022-10-18T02:13:59;6.08;80.47
72202;SHT30;60105;54.956;73.412;2022-10-18T02:16:36;6.10;80.25
72202;SHT30;60105;54.956;73.412;2022-10-18T02:21:54;6.26;79.82
72202;SHT30;60105;54.956;73.412;2022-10-18T02:24:26;6.29;80.06
72202;SHT30;60105;54.956;73.412;2022-10-18T02:27:05;6.32;80.61
72202;SHT30;60105;54.956;73.412;2022-10-18T02:29:31;6.39;79.66
72202;SHT30;60105;54.956;73.412;2022-10-18T02:32:05;6.47;79.53
72202;SHT30;60105;54.956;73.412;2022-10-18T02:34:38;6.53;79.36
72202;SHT30;60105;54.956;73.412;2022-10-18T02:37:08;6.63;79.13
72202;SHT30;60105;54.956;73.412;2022-10-18T02:39:42;6.71;78.68
72202;SHT30;60105;54.956;73.412;2022-10-18T02:42:10;6.73;78.67
72202;SHT30;60105;54.956;73.412;2022-10-18T02:44:37;6.77;78.43
72202;SHT30;60105;54.956;73.412;2022-10-18T02:47:05;6.77;78.67
72202;SHT30;60105;54.956;73.412;2022-10-18T02:49:32;6.80;78.37
72202;SHT30;60105;54.956;73.412;2022-10-18T02:51:58;6.77;78.79
72202;SHT30;60105;54.956;73.412;2022-10-18T02:54:24;6.81;78.61
72202;SHT30;60105;54.956;73.412;2022-10-18T02:56:50;6.83;78.37
72202;SHT30;60105;54.956;73.412;2022-10-18T02:59:16;6.85;78.82
72202;SHT30;60105;54.956;73.412;2022-10-18T03:01:43;6.84;78.60
72202;SHT30;60105;54.956;73.412;2022-10-18T03:04:09;6.84;78.43
72202;SHT30;60105;54.956;73.412;2022-10-18T03:06:44;6.83;78.61
72202;SHT30;60105;54.956;73.412;2022-10-18T03:09:10;6.81;78.86
72202;SHT30;60105;54.956;73.412;2022-10-18T03:11:36;6.85;78.85
72202;SHT30;60105;54.956;73.412;2022-10-18T03:14:03;6.88;78.65
72202;SHT30;60105;54.956;73.412;2022-10-18T03:16:29;6.94;78.70
72202;SHT30;60105;54.956;73.412;2022-10-18T03:18:55;6.98;78.26
72202;SHT30;60105;54.956;73.412;2022-10-18T03:21:21;7.01;78.10
72202;SHT30;60105;54.956;73.412;2022-10-18T03:23:47;7.04;78.34
72202;SHT30;60105;54.956;73.412;2022-10-18T03:26:14;7.09;78.04
72202;SHT30;60105;54.956;73.412;2022-10-18T03:28:50;7.12;77.87
72202;SHT30;60105;54.956;73.412;2022-10-18T03:31:16;7.19;77.99
72202;SHT30;60105;54.956;73.412;2022-10-18T03:33:42;7.19;77.37
72202;SHT30;60105;54.956;73.412;2022-10-18T03:36:08;7.15;77.46
72202;SHT30;60105;54.956;73.412;2022-10-18T03:38:35;7.23;77.33
72202;SHT30;60105;54.956;73.412;2022-10-18T03:41:01;7.28;76.97
72202;SHT30;60105;54.956;73.412;2022-10-18T03:43:27;7.23;77.19
72202;SHT30;60105;54.956;73.412;2022-10-18T03:45:53;7.33;77.16
72202;SHT30;60105;54.956;73.412;2022-10-18T03:48:20;7.46;77.58
72202;SHT30;60105;54.956;73.412;2022-10-18T03:50:46;7.46;77.15
72202;SHT30;60105;54.956;73.412;2022-10-18T03:53:13;7.57;76.75
72202;SHT30;60105;54.956;73.412;2022-10-18T03:55:39;7.67;76.55
72202;SHT30;60105;54.956;73.412;2022-10-18T03:58:05;7.65;76.46
72202;SHT30;60105;54.956;73.412;2022-10-18T04:00:31;7.78;75.85
72202;SHT30;60105;54.956;73.412;2022-10-18T04:02:58;7.66;75.92
72202;SHT30;60105;54.956;73.412;2022-10-18T04:05:24;7.65;76.13
72202;SHT30;60105;54.956;73.412;2022-10-18T04:07:53;7.71;75.86
72202;SHT30;60105;54.956;73.412;2022-10-18T04:10:29;7.76;75.99
72202;SHT30;60105;54.956;73.412;2022-10-18T04:12:55;7.87;76.24
72202;SHT30;60105;54.956;73.412;2022-10-18T04:15:22;7.87;75.97
72202;SHT30;60105;54.956;73.412;2022-10-18T04:17:48;7.94;76.14
72202;SHT30;60105;54.956;73.412;2022-10-18T04:20:14;7.91;76.09
72202;SHT30;60105;54.956;73.412;2022-10-18T04:22:40;7.99;75.29
72202;SHT30;60105;54.956;73.412;2022-10-18T04:25:06;7.99;75.43
72202;SHT30;60105;54.956;73.412;2022-10-18T04:27:33;7.94;76.36
72202;SHT30;60105;54.956;73.412;2022-10-18T04:29:59;7.88;76.21
72202;SHT30;60105;54.956;73.412;2022-10-18T04:32:25;7.87;76.79
72202;SHT30;60105;54.956;73.412;2022-10-18T04:34:53;7.81;77.04
72202;SHT30;60105;54.956;73.412;2022-10-18T04:37:20;7.76;77.24
72202;SHT30;60105;54.956;73.412;2022-10-18T04:39:46;7.77;77.35
72202;SHT30;60105;54.956;73.412;2022-10-18T04:42:13;7.66;77.81
72202;SHT30;60105;54.956;73.412;2022-10-18T04:44:40;7.70;77.69
72202;SHT30;60105;54.956;73.412;2022-10-18T04:47:06;7.74;78.12
72202;SHT30;60105;54.956;73.412;2022-10-18T04:49:32;7.81;77.67
72202;SHT30;60105;54.956;73.412;2022-10-18T04:51:58;7.86;77.80
72202;SHT30;60105;54.956;73.412;2022-10-18T04:54:24;8.01;77.49
72202;SHT30;60105;54.956;73.412;2022-10-18T04:56:51;8.08;78.07
72202;SHT30;60105;54.956;73.412;2022-10-18T04:59:17;8.17;77.65
72202;SHT30;60105;54.956;73.412;2022-10-18T05:01:43;8.09;76.59
72202;SHT30;60105;54.956;73.412;2022-10-18T05:04:14;7.98;78.36
72202;SHT30;60105;54.956;73.412;2022-10-18T05:06:42;7.91;78.26
72202;SHT30;60105;54.956;73.412;2022-10-18T05:09:08;7.95;78.36
72202;SHT30;60105;54.956;73.412;2022-10-18T05:11:35;8.04;78.33
72202;SHT30;60105;54.956;73.412;2022-10-18T05:14:06;8.01;77.56
72202;SHT30;60105;54.956;73.412;2022-10-18T05:16:35;7.97;77.47
72202;SHT30;60105;54.956;73.412;2022-10-18T05:19:03;7.93;77.50
72202;SHT30;60105;54.956;73.412;2022-10-18T05:21:29;7.88;78.24
72202;SHT30;60105;54.956;73.412;2022-10-18T05:23:55;7.94;77.34
72202;SHT30;60105;54.956;73.412;2022-10-18T05:26:22;8.01;76.69
72202;SHT30;60105;54.956;73.412;2022-10-18T05:28:49;8.02;76.82
72202;SHT30;60105;54.956;73.412;2022-10-18T05:31:17;7.99;77.49
72202;SHT30;60105;54.956;73.412;2022-10-18T05:33:43;7.97;77.93
72202;SHT30;60105;54.956;73.412;2022-10-18T05:36:09;7.97;77.79
72202;SHT30;60105;54.956;73.412;2022-10-18T05:38:40;7.98;78.31
72202;SHT30;60105;54.956;73.412;2022-10-18T05:41:11;7.93;78.90
72202;SHT30;60105;54.956;73.412;2022-10-18T05:43:38;7.88;78.87
72202;SHT30;60105;54.956;73.412;2022-10-18T05:46:05;7.90;78.77
72202;SHT30;60105;54.956;73.412;2022-10-18T05:48:33;7.86;79.51
72202;SHT30;60105;54.956;73.412;2022-10-18T05:51:00;7.95;79.12
72202;SHT30;60105;54.956;73.412;2022-10-18T05:53:27;8.08;78.27
72202;SHT30;60105;54.956;73.412;2022-10-18T05:55:53;8.08;78.18
72202;SHT30;60105;54.956;73.412;2022-10-18T05:58:19;8.09;77.82
72202;SHT30;60105;54.956;73.412;2022-10-18T06:00:46;8.18;77.71
72202;SHT30;60105;54.956;73.412;2022-10-18T06:03:12;8.26;77.28
72202;SHT30;60105;54.956;73.412;2022-10-18T06:05:38;8.20;77.36
72202;SHT30;60105;54.956;73.412;2022-10-18T06:08:04;8.15;77.83
72202;SHT30;60105;54.956;73.412;2022-10-18T06:10:30;8.14;78.04
72202;SHT30;60105;54.956;73.412;2022-10-18T06:12:57;8.01;78.49
72202;SHT30;60105;54.956;73.412;2022-10-18T06:15:23;8.07;78.68
72202;SHT30;60105;54.956;73.412;2022-10-18T06:17:49;8.20;78.62
72202;SHT30;60105;54.956;73.412;2022-10-18T06:20:15;8.17;78.66
72202;SHT30;60105;54.956;73.412;2022-10-18T06:22:46;8.14;78.55
72202;SHT30;60105;54.956;73.412;2022-10-18T06:25:13;8.20;78.60
72202;SHT30;60105;54.956;73.412;2022-10-18T06:27:39;8.31;78.87
72202;SHT30;60105;54.956;73.412;2022-10-18T06:30:06;8.45;78.01
72202;SHT30;60105;54.956;73.412;2022-10-18T06:32:32;8.45;79.16
72202;SHT30;60105;54.956;73.412;2022-10-18T06:34:58;8.52;78.49
72202;SHT30;60105;54.956;73.412;2022-10-18T06:37:24;8.57;78.45
72202;SHT30;60105;54.956;73.412;2022-10-18T06:39:53;8.49;78.73
72202;SHT30;60105;54.956;73.412;2022-10-18T06:42:19;8.67;77.53
72202;SHT30;60105;54.956;73.412;2022-10-18T06:44:45;8.73;78.36
72202;SHT30;60105;54.956;73.412;2022-10-18T06:47:12;8.84;77.31
72202;SHT30;60105;54.956;73.412;2022-10-18T06:49:39;8.96;76.95
72202;SHT30;60105;54.956;73.412;2022-10-18T06:52:05;8.97;76.71
72202;SHT30;60105;54.956;73.412;2022-10-18T06:54:32;9.05;76.22
72202;SHT30;60105;54.956;73.412;2022-10-18T06:56:59;9.18;76.13
72202;SHT30;60105;54.956;73.412;2022-10-18T06:59:32;9.17;75.98
72202;SHT30;60105;54.956;73.412;2022-10-18T07:01:58;9.14;75.86
72202;SHT30;60105;54.956;73.412;2022-10-18T07:04:27;9.05;76.09
72202;SHT30;60105;54.956;73.412;2022-10-18T07:06:54;9.08;75.58
72202;SHT30;60105;54.956;73.412;2022-10-18T07:09:20;9.13;75.65
72202;SHT30;60105;54.956;73.412;2022-10-18T07:11:47;9.15;75.97
72202;SHT30;60105;54.956;73.412;2022-10-18T07:14:13;9.28;75.15
72202;SHT30;60105;54.956;73.412;2022-10-18T07:16:39;9.13;75.35
72202;SHT30;60105;54.956;73.412;2022-10-18T07:19:06;9.13;75.93
72202;SHT30;60105;54.956;73.412;2022-10-18T07:21:32;9.18;75.35
72202;SHT30;60105;54.956;73.412;2022-10-18T07:23:58;9.27;75.66
72202;SHT30;60105;54.956;73.412;2022-10-18T07:26:30;9.18;75.50
72202;SHT30;60105;54.956;73.412;2022-10-18T07:29:05;9.24;75.30
72202;SHT30;60105;54.956;73.412;2022-10-18T07:31:31;9.20;75.44
72202;SHT30;60105;54.956;73.412;2022-10-18T07:33:58;9.21;76.03
72202;SHT30;60105;54.956;73.412;2022-10-18T07:36:25;9.24;75.81
72202;SHT30;60105;54.956;73.412;2022-10-18T07:38:52;9.30;75.41
72202;SHT30;60105;54.956;73.412;2022-10-18T07:41:18;9.31;75.08
72202;SHT30;60105;54.956;73.412;2022-10-18T07:43:47;9.42;75.32
72202;SHT30;60105;54.956;73.412;2022-10-18T07:46:14;9.51;75.00
72202;SHT30;60105;54.956;73.412;2022-10-18T07:48:40;9.56;74.59
72202;SHT30;60105;54.956;73.412;2022-10-18T07:51:07;9.62;74.31
72202;SHT30;60105;54.956;73.412;2022-10-18T07:53:40;9.52;75.05
72202;SHT30;60105;54.956;73.412;2022-10-18T07:56:09;9.42;74.31
72202;SHT30;60105;54.956;73.412;2022-10-18T07:58:42;9.39;73.73
72202;SHT30;60105;54.956;73.412;2022-10-18T08:01:08;9.42;74.13
72202;SHT30;60105;54.956;73.412;2022-10-18T08:03:35;9.48;74.67
72202;SHT30;60105;54.956;73.412;2022-10-18T08:06:04;9.62;73.90
72202;SHT30;60105;54.956;73.412;2022-10-18T08:08:37;9.65;74.84
72202;SHT30;60105;54.956;73.412;2022-10-18T08:11:10;9.65;74.86
72202;SHT30;60105;54.956;73.412;2022-10-18T08:13:37;9.65;73.98
72202;SHT30;60105;54.956;73.412;2022-10-18T08:16:07;9.65;73.13
72202;SHT30;60105;54.956;73.412;2022-10-18T08:18:34;9.66;73.75
72202;SHT30;60105;54.956;73.412;2022-10-18T08:21:02;9.62;73.60
72202;SHT30;60105;54.956;73.412;2022-10-18T08:23:29;9.69;72.08
72202;SHT30;60105;54.956;73.412;2022-10-18T08:25:56;9.61;71.43
72202;SHT30;60105;54.956;73.412;2022-10-18T08:28:25;9.44;71.89
72202;SHT30;60105;54.956;73.412;2022-10-18T08:30:51;9.51;71.34
72202;SHT30;60105;54.956;73.412;2022-10-18T08:33:21;9.62;71.73
72202;SHT30;60105;54.956;73.412;2022-10-18T08:35:55;9.78;72.13
72202;SHT30;60105;54.956;73.412;2022-10-18T08:38:21;9.87;72.32
72202;SHT30;60105;54.956;73.412;2022-10-18T08:40:47;10.04;71.00
72202;SHT30;60105;54.956;73.412;2022-10-18T08:45:55;10.20;69.27
72202;SHT30;60105;54.956;73.412;2022-10-18T08:48:36;9.97;70.04
72202;SHT30;60105;54.956;73.412;2022-10-18T08:51:06;9.94;70.19
72202;SHT30;60105;54.956;73.412;2022-10-18T08:56:38;9.92;70.33
72202;SHT30;60105;54.956;73.412;2022-10-18T08:59:11;9.89;70.17
72202;SHT30;60105;54.956;73.412;2022-10-18T09:07:24;10.03;70.13
72202;SHT30;60105;54.956;73.412;2022-10-18T09:10:36;10.14;70.03
72202;SHT30;60105;54.956;73.412;2022-10-18T09:16:00;10.00;68.75
72202;SHT30;60105;54.956;73.412;2022-10-18T09:21:35;10.00;68.28
72202;SHT30;60105;54.956;73.412;2022-10-18T09:24:10;9.97;68.17
72202;SHT30;60105;54.956;73.412;2022-10-18T09:26:45;9.93;68.64
72202;SHT30;60105;54.956;73.412;2022-10-18T09:32:11;9.96;68.91
72202;SHT30;60105;54.956;73.412;2022-10-18T09:34:48;10.03;68.45
72202;SHT30;60105;54.956;73.412;2022-10-18T09:37:18;10.10;68.31
72202;SHT30;60105;54.956;73.412;2022-10-18T09:40:05;10.07;67.27
72202;SHT30;60105;54.956;73.412;2022-10-18T09:42:41;10.02;68.01
72202;SHT30;60105;54.956;73.412;2022-10-18T09:45:26;9.97;68.43
72202;SHT30;60105;54.956;73.412;2022-10-18T09:48:12;9.93;69.72
72202;SHT30;60105;54.956;73.412;2022-10-18T09:50:46;9.89;70.07
72202;SHT30;60105;54.956;73.412;2022-10-18T09:59:33;9.65;72.94
72202;SHT30;60105;54.956;73.412;2022-10-18T10:02:07;9.56;73.77
72202;SHT30;60105;54.956;73.412;2022-10-18T10:04:37;9.56;73.68
72202;SHT30;60105;54.956;73.412;2022-10-18T10:07:25;9.49;74.93
72202;SHT30;60105;54.956;73.412;2022-10-18T10:10:22;9.42;75.67
72202;SHT30;60105;54.956;73.412;2022-10-18T10:13:24;9.30;76.29
72202;SHT30;60105;54.956;73.412;2022-10-18T10:15:56;9.31;77.65
72202;SHT30;60105;54.956;73.412;2022-10-18T10:18:28;9.27;77.25
72202;SHT30;60105;54.956;73.412;2022-10-18T10:20:57;9.20;77.74
72202;SHT30;60105;54.956;73.412;2022-10-18T10:25:55;9.20;77.35
72202;SHT30;60105;54.956;73.412;2022-10-18T10:28:29;9.14;76.36
72202;SHT30;60105;54.956;73.412;2022-10-18T10:36:51;9.18;77.08
72202;SHT30;60105;54.956;73.412;2022-10-18T10:39:20;9.08;74.49
72202;SHT30;60105;54.956;73.412;2022-10-18T10:44:15;8.70;74.91
72202;SHT30;60105;54.956;73.412;2022-10-18T10:46:42;8.67;74.90
72202;SHT30;60105;54.956;73.412;2022-10-18T10:49:23;8.63;75.34
72202;SHT30;60105;54.956;73.412;2022-10-18T10:52:01;8.45;76.08
72202;SHT30;60105;54.956;73.412;2022-10-18T10:54:30;8.22;77.60
72202;SHT30;60105;54.956;73.412;2022-10-18T10:57:15;8.22;77.39
72202;SHT30;60105;54.956;73.412;2022-10-18T10:59:46;8.22;78.10
72202;SHT30;60105;54.956;73.412;2022-10-18T11:04:41;8.21;77.67
72202;SHT30;60105;54.956;73.412;2022-10-18T11:07:32;8.29;76.88
72202;SHT30;60105;54.956;73.412;2022-10-18T11:12:48;8.28;78.07
72202;SHT30;60105;54.956;73.412;2022-10-18T11:15:24;8.28;79.54
72202;SHT30;60105;54.956;73.412;2022-10-18T11:18:20;8.25;79.46
72202;SHT30;60105;54.956;73.412;2022-10-18T11:21:07;8.21;79.96
72202;SHT30;60105;54.956;73.412;2022-10-18T11:23:38;8.18;79.55
72202;SHT30;60105;54.956;73.412;2022-10-18T11:31:26;8.08;81.88
72202;SHT30;60105;54.956;73.412;2022-10-18T11:43:23;7.84;82.02
72202;SHT30;60105;54.956;73.412;2022-10-18T12:02:57;7.98;80.85
72202;SHT30;60105;54.956;73.412;2022-10-18T12:05:26;8.07;79.66
72202;SHT30;60105;54.956;73.412;2022-10-18T12:08:16;7.99;80.90
72202;SHT30;60105;54.956;73.412;2022-10-18T12:10:48;7.98;80.85
72202;SHT30;60105;54.956;73.412;2022-10-18T12:13:22;8.01;81.56
72202;SHT30;60105;54.956;73.412;2022-10-18T12:15:53;8.08;81.48
72202;SHT30;60105;54.956;73.412;2022-10-18T12:18:25;7.98;82.04
72202;SHT30;60105;54.956;73.412;2022-10-18T12:20:54;7.94;82.24
72202;SHT30;60105;54.956;73.412;2022-10-18T12:23:41;8.02;82.38
72202;SHT30;60105;54.956;73.412;2022-10-18T12:26:10;8.07;81.07
72202;SHT30;60105;54.956;73.412;2022-10-18T12:34:05;8.02;82.08
72202;SHT30;60105;54.956;73.412;2022-10-18T12:39:30;7.94;82.21
72202;SHT30;60105;54.956;73.412;2022-10-18T12:41:57;7.91;82.12
72202;SHT30;60105;54.956;73.412;2022-10-18T12:44:29;7.83;82.94
72202;SHT30;60105;54.956;73.412;2022-10-18T12:46:58;7.86;83.08
72202;SHT30;60105;54.956;73.412;2022-10-18T12:49:32;7.83;83.43
72202;SHT30;60105;54.956;73.412;2022-10-18T12:52:03;7.83;83.12
72202;SHT30;60105;54.956;73.412;2022-10-18T12:54:33;7.78;83.54
72202;SHT30;60105;54.956;73.412;2022-10-18T12:57:20;7.81;83.79
72202;SHT30;60105;54.956;73.412;2022-10-18T12:59:47;7.86;83.40
72202;SHT30;60105;54.956;73.412;2022-10-18T13:02:25;7.86;83.63
72202;SHT30;60105;54.956;73.412;2022-10-18T13:04:52;7.84;84.03
72202;SHT30;60105;54.956;73.412;2022-10-18T13:13:04;7.88;83.88
72202;SHT30;60105;54.956;73.412;2022-10-18T13:15:39;7.86;83.64
72202;SHT30;60105;54.956;73.412;2022-10-18T13:18:22;7.90;83.45
72202;SHT30;60105;54.956;73.412;2022-10-18T13:21:21;7.90;83.06
72202;SHT30;60105;54.956;73.412;2022-10-18T13:34:49;7.77;83.45
72202;SHT30;60105;54.956;73.412;2022-10-18T13:37:23;7.78;83.02
72202;SHT30;60105;54.956;73.412;2022-10-18T13:39:51;7.80;83.06
72202;SHT30;60105;54.956;73.412;2022-10-18T13:42:31;7.80;83.48
72202;SHT30;60105;54.956;73.412;2022-10-18T13:56:44;7.97;81.84
72202;SHT30;60105;54.956;73.412;2022-10-18T13:59:39;7.98;81.48
72202;SHT30;60105;54.956;73.412;2022-10-18T14:05:07;7.97;82.00
72202;SHT30;60105;54.956;73.412;2022-10-18T14:07:40;8.02;81.99
72202;SHT30;60105;54.956;73.412;2022-10-18T14:10:24;8.05;82.98
72202;SHT30;60105;54.956;73.412;2022-10-18T14:12:56;8.07;83.38
72202;SHT30;60105;54.956;73.412;2022-10-18T14:25:36;7.99;83.39
72202;SHT30;60105;54.956;73.412;2022-10-18T14:28:09;8.01;83.21
72202;SHT30;60105;54.956;73.412;2022-10-18T14:30:49;7.99;83.19
72202;SHT30;60105;54.956;73.412;2022-10-18T14:41:18;7.74;84.28
72202;SHT30;60105;54.956;73.412;2022-10-18T14:43:45;7.77;84.03
72202;SHT30;60105;54.956;73.412;2022-10-18T14:46:25;7.78;83.71
72202;SHT30;60105;54.956;73.412;2022-10-18T14:51:34;7.84;83.42
72202;SHT30;60105;54.956;73.412;2022-10-18T14:54:01;7.84;83.25
72202;SHT30;60105;54.956;73.412;2022-10-18T14:56:30;7.86;83.35
72202;SHT30;60105;54.956;73.412;2022-10-18T14:58:59;7.83;82.88
72202;SHT30;60105;54.956;73.412;2022-10-18T15:01:30;7.90;82.94
72202;SHT30;60105;54.956;73.412;2022-10-18T15:04:00;7.91;82.61
72202;SHT30;60105;54.956;73.412;2022-10-18T15:06:27;7.90;82.63
72202;SHT30;60105;54.956;73.412;2022-10-18T15:08:58;7.91;82.72
72202;SHT30;60105;54.956;73.412;2022-10-18T15:11:26;7.87;83.24
72202;SHT30;60105;54.956;73.412;2022-10-18T15:13:56;7.88;83.29
72202;SHT30;60105;54.956;73.412;2022-10-18T15:16:28;7.86;83.37
72202;SHT30;60105;54.956;73.412;2022-10-18T15:19:28;7.83;83.50
72202;SHT30;60105;54.956;73.412;2022-10-18T15:21:56;7.76;83.43
72202;SHT30;60105;54.956;73.412;2022-10-18T15:26:58;7.78;83.41
72202;SHT30;60105;54.956;73.412;2022-10-18T15:29:25;7.84;82.86
72202;SHT30;60105;54.956;73.412;2022-10-18T15:31:52;7.90;82.70
72202;SHT30;60105;54.956;73.412;2022-10-18T15:34:26;7.88;82.84
72202;SHT30;60105;54.956;73.412;2022-10-18T15:36:54;7.87;82.28
72202;SHT30;60105;54.956;73.412;2022-10-18T15:39:23;7.91;82.45
72202;SHT30;60105;54.956;73.412;2022-10-18T15:42:01;7.97;82.40
72202;SHT30;60105;54.956;73.412;2022-10-18T15:44:46;8.07;82.10
72202;SHT30;60105;54.956;73.412;2022-10-18T15:49:55;8.02;82.37
72202;SHT30;60105;54.956;73.412;2022-10-18T15:52:40;8.05;82.18
72202;SHT30;60105;54.956;73.412;2022-10-18T16:00:59;8.04;82.12
72202;SHT30;60105;54.956;73.412;2022-10-18T16:03:34;8.02;82.12
72202;SHT30;60105;54.956;73.412;2022-10-18T16:06:06;7.98;82.27
72202;SHT30;60105;54.956;73.412;2022-10-18T16:08:53;8.04;82.07
72202;SHT30;60105;54.956;73.412;2022-10-18T16:11:28;8.07;82.08
72202;SHT30;60105;54.956;73.412;2022-10-18T16:13:54;8.09;81.45
72202;SHT30;60105;54.956;73.412;2022-10-18T16:16:23;8.08;81.63
72202;SHT30;60105;54.956;73.412;2022-10-18T16:18:50;8.08;81.80
72202;SHT30;60105;54.956;73.412;2022-10-18T16:21:32;8.04;81.52
72202;SHT30;60105;54.956;73.412;2022-10-18T16:23:59;8.07;81.35
72202;SHT30;60105;54.956;73.412;2022-10-18T16:26:35;8.15;80.98
72202;SHT30;60105;54.956;73.412;2022-10-18T16:29:12;8.14;80.87
72202;SHT30;60105;54.956;73.412;2022-10-18T16:31:39;8.21;80.91
72202;SHT30;60105;54.956;73.412;2022-10-18T16:34:05;8.17;80.64
72202;SHT30;60105;54.956;73.412;2022-10-18T16:36:36;8.15;80.66
72202;SHT30;60105;54.956;73.412;2022-10-18T16:39:05;8.11;80.67
72202;SHT30;60105;54.956;73.412;2022-10-18T16:41:34;8.14;80.60
72202;SHT30;60105;54.956;73.412;2022-10-18T16:44:05;8.11;80.57
72202;SHT30;60105;54.956;73.412;2022-10-18T16:46:37;8.11;80.37
72202;SHT30;60105;54.956;73.412;2022-10-18T16:49:19;8.11;80.29
72202;SHT30;60105;54.956;73.412;2022-10-18T16:51:54;8.05;80.42
72202;SHT30;60105;54.956;73.412;2022-10-18T16:54:30;8.02;80.54
72202;SHT30;60105;54.956;73.412;2022-10-18T16:56:57;7.98;80.57
72202;SHT30;60105;54.956;73.412;2022-10-18T16:59:26;8.01;80.72
72202;SHT30;60105;54.956;73.412;2022-10-18T17:01:53;7.99;80.78
72202;SHT30;60105;54.956;73.412;2022-10-18T17:04:19;8.04;80.33
72202;SHT30;60105;54.956;73.412;2022-10-18T17:06:45;8.01;80.32
72202;SHT30;60105;54.956;73.412;2022-10-18T17:09:14;8.02;79.95
72202;SHT30;60105;54.956;73.412;2022-10-18T17:11:40;8.05;80.00
72202;SHT30;60105;54.956;73.412;2022-10-18T17:14:07;8.02;80.20
72202;SHT30;60105;54.956;73.412;2022-10-18T17:16:35;7.99;80.02
72202;SHT30;60105;54.956;73.412;2022-10-18T17:19:05;7.95;80.03
72202;SHT30;60105;54.956;73.412;2022-10-18T17:21:31;7.98;79.95
72202;SHT30;60105;54.956;73.412;2022-10-18T17:24:01;7.95;79.94
72202;SHT30;60105;54.956;73.412;2022-10-18T17:26:28;7.97;79.77
72202;SHT30;60105;54.956;73.412;2022-10-18T17:28:57;7.95;79.89
72202;SHT30;60105;54.956;73.412;2022-10-18T17:31:25;7.98;79.76
72202;SHT30;60105;54.956;73.412;2022-10-18T17:33:52;8.01;79.54
72202;SHT30;60105;54.956;73.412;2022-10-18T17:36:20;7.94;79.92
72202;SHT30;60105;54.956;73.412;2022-10-18T17:38:51;7.94;79.93
72202;SHT30;60105;54.956;73.412;2022-10-18T17:41:23;7.93;79.56
72202;SHT30;60105;54.956;73.412;2022-10-18T17:43:55;7.97;79.40
72202;SHT30;60105;54.956;73.412;2022-10-18T17:46:27;7.97;79.25
72202;SHT30;60105;54.956;73.412;2022-10-18T17:48:53;7.90;79.77
72202;SHT30;60105;54.956;73.412;2022-10-18T17:51:29;7.90;79.42
72202;SHT30;60105;54.956;73.412;2022-10-18T17:53:55;7.94;79.17
72202;SHT30;60105;54.956;73.412;2022-10-18T17:56:21;7.98;78.94
72202;SHT30;60105;54.956;73.412;2022-10-18T17:58:50;7.94;79.03
72202;SHT30;60105;54.956;73.412;2022-10-18T18:01:20;7.91;78.89
72202;SHT30;60105;54.956;73.412;2022-10-18T18:03:46;7.90;79.06
72202;SHT30;60105;54.956;73.412;2022-10-18T18:06:32;7.84;79.03
72202;SHT30;60105;54.956;73.412;2022-10-18T18:09:02;7.83;79.11
72202;SHT30;60105;54.956;73.412;2022-10-18T18:11:30;7.84;79.15
72202;SHT30;60105;54.956;73.412;2022-10-18T18:13:57;7.81;79.13
72202;SHT30;60105;54.956;73.412;2022-10-18T18:16:25;7.78;78.86
72202;SHT30;60105;54.956;73.412;2022-10-18T18:18:54;7.73;79.14
72202;SHT30;60105;54.956;73.412;2022-10-18T18:21:21;7.73;79.01
72202;SHT30;60105;54.956;73.412;2022-10-18T18:23:49;7.73;79.12
72202;SHT30;60105;54.956;73.412;2022-10-18T18:26:17;7.70;79.22
72202;SHT30;60105;54.956;73.412;2022-10-18T18:28:43;7.66;79.00
72202;SHT30;60105;54.956;73.412;2022-10-18T18:31:21;7.63;79.27
72202;SHT30;60105;54.956;73.412;2022-10-18T18:33:52;7.59;79.07
72202;SHT30;60105;54.956;73.412;2022-10-18T18:36:19;7.62;78.97
72202;SHT30;60105;54.956;73.412;2022-10-18T18:38:46;7.57;79.19
72202;SHT30;60105;54.956;73.412;2022-10-18T18:41:24;7.60;78.76
72202;SHT30;60105;54.956;73.412;2022-10-18T18:43:53;7.55;79.03
72202;SHT30;60105;54.956;73.412;2022-10-18T18:46:21;7.53;78.79
72202;SHT30;60105;54.956;73.412;2022-10-18T18:48:48;7.50;78.70